Terminal Aerodrome Forecast
Issued by NWS

Home | Current Version | Previous Version | Text Only | Print | Product List | Glossary On
Versions: 1 2 3 4 5 6 7 8 9 10 11 12 13
000
FTUS42 TJSJ 240500 RRA
TAFJBQ
TAF
TJBQ 240545Z 2406/2506 12005KT P6SM FEW030
     FM241400 07013KT P6SM SCT025
     FM242300 11008KT P6SM SCT030
      AMD NOT SKED TIL 241100=

USA.gov is the U.S. government's official web portal to all federal, state and local government web resources and services.